Warning: Javascript must be enabled to use all the features on this page!


Page Loading - Please Wait...

* We've detected you're using a mobile device. Find our Next Generation Station Page here.
Click to hideNews Bulletins

Streamflow Measurements for the Nation


USGS 02310750 CRYSTAL RIVER NEAR CRYSTAL RIVER FL


Citrus County, Florida
Hydrologic Unit Code 03100207
Latitude  28°54'17.09", Longitude  82°38'07.31" NAD27
Gage datum 0.00 feet above NAVD88
Output formats
HTML table with channel data
HTML table without channel data
Tab-separated data with channel data
Tab-separated data without channel data
Graph of data
Reselect output format
Meas.
Number
  Date       Time Time
Datum
Measurement
Used?
  Who Measuring
Agency
Stream
flow
(ft3/s)
Gage
Height
(ft)
GH
Change
(ft)
Meas.
Duration
(hr)
Meas.
Rated
  Control Flow
Adjust.
Code
 
2972024-04-25 13:03:03EDTYesAB/RDUSGS-73800.12 0.15Poor NONE
2962024-04-25 12:44:28EDTYesAB/RDUSGS-6870-0.09 0.15Poor NONE
2952024-04-25 12:33:18EDTYesAB/RDUSGS-6010-0.19 0.11Poor NONE
2942024-04-25 12:13:22EDTYesAB/RDUSGS-4660-0.33 0.10Poor NONE
2932024-04-25 12:03:42EDTYesAB/RDUSGS-3390-0.40 0.14Poor NONE
2922024-04-25 11:53:34EDTYesAB/RDUSGS-2030-0.44 0.14Poor NONE
3052024-02-14 13:32:06ESTYesRD/ABUSGS-1320-1.22 0.10PoorClearNONE
3042024-02-14 13:18:24ESTYesRD/ABUSGS558-1.29 0.11PoorClearNONE
3032024-02-14 13:11:04ESTYesRD/ABUSGS1490-1.33 0.11PoorClearNONE
3022024-02-14 13:03:06ESTYesRD/ABUSGS2230-1.36 0.12PoorClearNONE
3012024-02-14 12:34:43ESTYesRD/ABUSGS3810-1.38 0.63PoorClearNONE
3002024-02-14 12:11:05ESTYesRD/ABUSGS4460-1.30 0.13PoorClearNONE
2992024-02-14 11:37:18ESTYesRD/ABUSGS4720-1.15 0.12FairClearNONE
2982024-02-14 11:23:16ESTYesRD/ABUSGS4840-1.07 0.12GoodClearNONE
2822023-12-13 12:45:39ESTYesRD/ABUSGS-3000-2.11 0.14Poor NONE
2812023-12-13 12:35:35ESTYesRD/ABUSGS-1910-2.17 0.12Poor NONE
2802023-12-13 12:25ESTYesRD/ABUSGS-767-2.25 0.13Poor NONE
2792023-12-13 12:15ESTYesRD/ABUSGS511-2.31 0.14Poor NONE
2782023-12-13 12:04:35ESTYesRD/ABUSGS1460-2.38 0.14Poor NONE
2772023-12-13 11:55:46ESTYesRD/ABUSGS2140-2.44 0.14Poor NONE
2762023-12-13 11:30:32ESTYesRD/ABUSGS3000-2.48 0.17Poor NONE
2752023-12-13 11:20:18ESTYesRD/ABUSGS3160-2.46 0.16Fair NONE
2742023-12-13 10:57:08ESTYesRD/ABUSGS3420-2.39 0.16Fair NONE
2732023-12-13 10:47:07ESTYesRD/ABUSGS3590-2.36 0.16Poor NONE
2722023-10-03 11:49:35EDTYesRJD/LMUSGS5780-0.84-0.060.15Fair NONE
2712023-10-03 11:40EDTYesRJD/LMUSGS5910-0.77-0.060.15Good NONE
2702023-10-03 11:28:46EDTYesRJD/LMUSGS6020-0.70-0.080.13Good NONE
2692023-10-03 11:18:38EDTYesRJD/LMUSGS5980-0.63-0.060.15Poor NONE
2682023-10-03 11:02:31EDTYesRJD/LMUSGS6220-0.52-0.080.17Poor NONE
2672023-08-08 15:41EDTYesRD/ABUSGS4930-0.59 Poor NONE
2662023-08-08 15:12:30EDTYesRD/ABUSGS5460-0.44 Poor NONE
2652023-08-08 15:02:49EDTYesRD/ABUSGS5790-0.40 Poor NONE
2642023-08-08 14:46EDTYesRD/ABUSGS6200-0.29 Poor NONE
2632023-06-14 17:01:47EDTYesRJD/LMUSGS78500.94 0.14Fair NONE
2622023-06-14 16:53:02EDTYesRJD/LMUSGS79601.011.010.14Poor NONE
2612023-06-14 16:32:04EDTYesRJD/LMUSGS78001.171.010.14Poor NONE
2602023-06-14 16:23:30EDTYesRJD/LMUSGS76001.23 1.00Poor NONE
2592023-04-13 10:46:57EDTYesRJD/MTPUSGS-9981.53 0.14PoorUnspecifedNONE
2582023-04-13 10:26:10EDTYesRJD/MTPUSGS-27001.52 0.13PoorUnspecifedNONE
2572023-04-13 10:11:09EDTYesRJD/MTPUSGS-39901.50 0.14PoorUnspecifedNONE
2562023-04-13 09:47:42EDTYesRJD/MTPUSGS-50701.43 0.17FairUnspecifedNONE
2552023-02-02 10:47:07ESTYesRJD/ARBUSGS-4920-1.12 0.13FairClearNONE
2542023-02-02 10:39:05ESTYesRJD/ARBUSGS-4800-1.18 0.13PoorClearNONE
2532023-02-02 10:30:30ESTYesRJD/ARBUSGS-4740-1.24 0.14PoorClearNONE
2522023-02-02 10:18:06ESTYesRJD/ARBUSGS-3840-1.31 0.14PoorClearNONE
2512023-02-02 10:09:29ESTYesRJD/ARBUSGS-3050-1.36 0.11PoorClearNONE
2502023-02-02 09:58:12ESTYesRJD/ARBUSGS-1530-1.42 0.26PoorClearNONE
2492022-12-07 10:09:09ESTYesRJD/LMUSGS3900-1.24 Fair NONE
2482022-12-07 09:59:02ESTYesRJD/LMUSGS4430-1.25 Fair NONE
2472022-12-07 09:33:42ESTYesRJD/LMUSGS5410-1.17 Poor NONE
2462022-12-07 09:24:43ESTYesRJD/LMUSGS5390-1.12 Good NONE
2452022-12-07 09:13:36ESTYesRJD/LMUSGS5760-1.06 0.13Fair NONE
2442022-10-13 10:26:17EDTYesRJD/NSUSGS79800.28 0.18Poor NONE
2432022-10-13 10:16:20EDTYesRJD/NSUSGS81400.36 0.13Poor NONE
2422022-10-13 09:53:22EDTYesRJD/NSUSGS87100.56 0.14Poor NONE
2412022-10-13 09:43:51EDTYesRJD/NSUSGS87300.64 0.15Poor NONE
2402022-10-13 09:34:14EDTYesRJD/NSUSGS87600.71 0.12Fair NONE
2392022-08-05 10:50:24EDTYesRJD/ARBUSGS69101.19 FairClearNONE
2382022-08-05 10:33:04EDTYesRJD/ARBUSGS66001.30 PoorClearNONE
2372022-08-05 10:12:22EDTYesRJD/ARBUSGS61301.43 FairClearNONE
2362022-08-05 09:59:24EDTYesRJD/ARBUSGS49701.50 PoorClearNONE
2352022-08-05 09:40:38EDTYesRJD/ARBUSGS29301.60 FairClearNONE
2342022-06-08 14:10:21EDTYesRJD/JCMUSGS66801.05 0.16FairClearNONE
2332022-06-08 13:59:51EDTYesRJD/JCMUSGS68701.12 0.15FairClearNONE
2322022-06-08 13:47:33EDTYesRJD/JCMUSGS69101.20 0.25FairClearNONE
2312022-06-08 11:57:26EDTYesRJD/JCMUSGS21601.80 0.17PoorClearNONE
2302022-06-08 11:45:49EDTYesRJD/JCMUSGS4141.84 0.17PoorClearNONE
2292022-06-08 11:35:18EDTYesRJD/JCMUSGS-8931.86 0.17PoorClearNONE
2282022-04-05 14:22:29EDTYesRJD/LMUSGS-71000.88 0.13FairClearNONE
2272022-04-05 14:13:38EDTYesRJD/LMUSGS-69300.80 0.16FairClearNONE
2262022-04-05 14:04:31EDTYesRJD/LMUSGS-67600.71 0.14FairClearNONE
2252022-04-05 13:56:04EDTYesRJD/LMUSGS-68100.62 0.14FairClearNONE
2242022-04-05 13:47:26EDTYesRJD/LMUSGS-67300.54 0.14FairClearNONE
2232022-04-05 13:39:05EDTYesRJD/LMUSGS-64500.46 0.13FairClearNONE
2222022-04-05 13:30:27EDTYesRJD/LMUSGS-63000.38 0.15PoorClearNONE
2212022-04-05 13:21:24EDTYesRJD/LMUSGS-61200.30 0.14FairClearNONE
2202022-02-03 15:25:56ESTYesRJD/JCMUSGS-91801.35 0.18FairUnspecifedNONE
2192022-02-03 15:14:45ESTYesRJD/JCMUSGS-89001.24 0.19PoorUnspecifedNONE
2182022-02-03 14:48:48ESTYesRJD/JCMUSGS-88800.98 0.16PoorUnspecifedNONE
2172022-02-03 14:38:18ESTYesRJD/JCMUSGS-89200.87 0.18FairUnspecifedNONE
2162022-02-03 14:27:50ESTYesRJD/JCMUSGS-87500.75 0.14FairUnspecifedNONE
2152021-12-01 13:05:11ESTYesRJD/GMUSGS-52401.41 0.15Fair NONE
2142021-12-01 12:50:57ESTYesRJD/GMUSGS-60001.35 0.17Poor NONE
2132021-12-01 12:19:34ESTYesRJD/GMUSGS-71501.16 0.20Fair NONE
2122021-12-01 12:07:46ESTYesRJD/GMUSGS-74101.08 0.18Fair NONE
2112021-10-20 12:58:14EDTYesRJD/SRFUSGS-80800.41 0.16Poor NONE
2102021-10-20 12:49:26EDTYesRJD/SRFUSGS-79400.31 0.12Fair NONE
2092021-10-20 12:41:52EDTYesRJD/SRFUSGS-76600.21 0.12Fair NONE
2082021-10-20 12:27:14EDTYesRJD/SRFUSGS-72400.03 0.36Fair NONE
2072021-10-20 12:10:43EDTYesRJD/SRFUSGS-6480-0.18 0.12Fair NONE
2062021-10-20 11:56:45EDTYesRJD/SRFUSGS-5970-0.30 0.12Fair NONE
2052021-08-04 11:11:56EDTYesRJD/BCFUSGS-48302.04 0.15Poor NONE
2042021-08-04 11:02:39EDTYesRJD/BCFUSGS-56302.01 0.12Poor NONE
2032021-08-04 10:53:07EDTYesRJD/BCFUSGS-54401.98 0.11Poor NONE
2022021-08-04 10:36:32EDTYesRJD/BCFUSGS-62301.89 0.11Poor NONE
2012021-08-04 10:29:05EDTYesRJD/BCFUSGS-58801.82 0.13Poor NONE
2002021-08-04 10:20:27EDTYesRJD/BCFUSGS-54401.74 0.15Poor NONE
1992021-08-04 10:12:20EDTYesRJD/BCFUSGS-54501.68 0.11Poor NONE
1982021-08-04 10:05:13EDTYesRJD/BCFUSGS-51201.64 0.12Poor NONE
1972021-06-21 13:58:30EDTYesRJD/BCFUSGS57901.78 0.12PoorClearNONE
1962021-06-21 13:49:45EDTYesRJD/BCFUSGS49101.83 0.17PoorClearNONE
1952021-06-21 13:37:50EDTYesRJD/BCFUSGS38201.89 0.13PoorClearNONE
1942021-06-21 13:25:12EDTYesRJD/BCFUSGS24801.93 0.15PoorClearNONE
1932021-06-21 13:15:32EDTYesRJD/BCFUSGS10401.95 0.12PoorClearNONE
1922021-06-21 13:07:17EDTYesRJD/BCFUSGS-1571.96 0.12PoorClearNONE
1912021-04-13 13:38:39EDTYesRJD/BCFUSGS-72700.12 0.17PoorUnspecifedNONE
1902021-04-13 13:24:45EDTYesRJD/BCFUSGS-6970-0.04 0.29PoorUnspecifedNONE
1892021-04-13 13:09:04EDTYesRJD/BCFUSGS-6070-0.23 0.10PoorUnspecifedNONE
1882021-04-13 13:00:59EDTYesRJD/BCFUSGS-5760-0.31 0.12PoorUnspecifedNONE
1872021-04-13 12:47:38EDTYesRJD/BCFUSGS-5350-0.41 0.14FairUnspecifedNONE
1862021-02-16 11:52:59ESTYesRJD/RNTUSGS5820-0.16 0.14PoorClearNONE
1852021-02-16 11:44:24ESTYesRJD/RNTUSGS5740-0.10 0.14PoorClearNONE
1842021-02-16 11:36:12ESTYesRJD/RNTUSGS5920-0.05 0.13PoorClearNONE
1832021-02-16 11:28:07ESTYesRJD/RNTUSGS6430-0.00 0.14PoorClearNONE
1822021-02-16 11:20:02ESTYesRJD/RNTUSGS64100.05 0.12PoorClearNONE
1812021-02-16 11:12:46ESTYesRJD/RNTUSGS65100.10 0.12FairClearNONE
1802020-12-11 14:00:28ESTYesRJD/TCFUSGS28201.03 0.11PoorClearNONE
1792020-12-11 13:49ESTYesRJD/TCFUSGS8111.08 0.06PoorClearNONE
1782020-12-11 13:42:07ESTYesRJD/TCFUSGS-2551.11 0.06PoorClearNONE
1772020-12-11 13:35:34ESTYesRJD/TCFUSGS-13101.13 0.06PoorClearNONE
1762020-12-11 13:26:16ESTYesRJD/TCFUSGS-24601.14 0.06PoorClearNONE
1752020-12-11 13:15:54ESTYesRJD/TCFUSGS-33101.13 0.14PoorClearNONE
1742020-12-11 13:00:39ESTYesRJD/TCFUSGS-47601.11 0.15PoorClearNONE
1732020-12-11 12:48:10ESTYesRJD/TCFUSGS-53501.07 0.14PoorClearNONE
1722020-12-11 12:38:16ESTYesRJD/TCFUSGS-59101.02 0.16PoorClearNONE
1712020-12-11 11:21:22ESTYesRJD/TCFUSGS-73100.46 0.27GoodClearNONE
1702020-12-11 10:50:57ESTYesRJD/TCFUSGS-72800.18 0.18FairClearNONE
1692020-12-11 10:27:58ESTYesRJD/TCFUSGS-7090-0.06 0.22FairClearNONE
1682020-12-11 10:08:41ESTYesRJD/TCFUSGS-6610-0.27 0.21PoorClearNONE
1672020-12-11 09:50:31ESTYesRJD/TCFUSGS-5990-0.46 0.08PoorClearNONE
1661976-08-24 -- ----Yeswlf/rdeUSGS-585011.91 UnspecifiedUnspecifedNONE
1651976-08-24 -- ----Yeswlf/rdeUSGS-633011.78 UnspecifiedUnspecifedNONE
1641976-08-24 -- ----Yeswlf/rdeUSGS-627011.50 UnspecifiedUnspecifedNONE
1631976-08-24 -- ----Yeswlf/rdeUSGS-577011.06 UnspecifiedUnspecifedNONE
1621976-08-24 -- ----Yeswlf/rdeUSGS-393010.53 UnspecifiedUnspecifedNONE
1611976-08-24 -- ----Yeswlf/rdeUSGS22209.62 UnspecifiedUnspecifedNONE
1601976-08-24 -- ----Yeswlf/rdeUSGS35209.48 UnspecifiedUnspecifedNONE
1591975-05-13 -- ----Yesrde/jkoUSGS-183012.29 UnspecifiedUnspecifedNONE
1571975-05-13 -- ----Yesrde/jkoUSGS-567012.35 UnspecifiedUnspecifedNONE
1561975-05-13 -- ----Yesrde/jkoUSGS-640012.25 UnspecifiedUnspecifedNONE
1551975-05-13 -- ----Yesrde/jkoUSGS-642012.00 UnspecifiedUnspecifedNONE
1541975-05-13 -- ----Yesrde/jkoUSGS-537011.57 UnspecifiedUnspecifedNONE
1531975-05-13 -- ----Yesrde/jkoUSGS-472011.40 UnspecifiedUnspecifedNONE
1521975-05-13 -- ----Yesrde/jkoUSGS-436011.13 UnspecifiedUnspecifedNONE
1511975-05-13 -- ----Yesrde/jkoUSGS-369011.01 UnspecifiedUnspecifedNONE
1501975-05-13 -- ----Yesrde/jkoUSGS-293010.80 UnspecifiedUnspecifedNONE
1491975-05-13 -- ----Yesrde/jkoUSGS87610.44 UnspecifiedUnspecifedNONE
1481975-05-13 -- ----Yesrde/jkoUSGS174010.24 UnspecifiedUnspecifedNONE
1471975-05-13 -- ----Yesrde/jkoUSGS318010.17 UnspecifiedUnspecifedNONE
1461975-05-13 -- ----Yesrde/jkoUSGS397010.22 UnspecifiedUnspecifedNONE
1451975-05-13 -- ----Yesrde/jkoUSGS444010.57 UnspecifiedUnspecifedNONE
1441975-05-13 -- ----Yesrde/jkoUSGS406010.88 UnspecifiedUnspecifedNONE
1431975-05-13 -- ----Yesrde/jkoUSGS412011.06 UnspecifiedUnspecifedNONE
1421975-05-13 -- ----Yesrde/jkoUSGS403011.26 UnspecifiedUnspecifedNONE
1411974-01-09 -- ----Yesrde/jkoUSGS-667010.86 GoodUnspecifedNONE
1401974-01-09 -- ----Yesrde/jkoUSGS-652010.56 GoodUnspecifedNONE
1391974-01-09 -- ----Yesrde/jkoUSGS-564010.22 GoodUnspecifedNONE
1381974-01-09 -- ----Yesrde/jkoUSGS-47509.88 GoodUnspecifedNONE
1361974-01-09 -- ----Yesrde/jkoUSGS30909.08 GoodUnspecifedNONE
1351974-01-09 -- ----Yesrde/jkoUSGS42909.23 GoodUnspecifedNONE
1341974-01-09 -- ----Yesrde/jkoUSGS49009.46 GoodUnspecifedNONE
1331974-01-09 -- ----Yesrde/jkoUSGS52509.75 GoodUnspecifedNONE
1321974-01-09 -- ----Yesrde/jkoUSGS58009.93 GoodUnspecifedNONE
1311974-01-09 -- ----Yesrde/jkoUSGS574010.14 GoodUnspecifedNONE
1301974-01-09 -- ----Yesrde/jkoUSGS605010.32 GoodUnspecifedNONE
1291974-01-08 -- ----Yesrde/jkoUSGS-628010.68 GoodUnspecifedNONE
1271974-01-08 -- ----Yesrde/jkoUSGS-515010.12 GoodUnspecifedNONE
1261974-01-08 -- ----Yesrde/jkoUSGS-41809.80 GoodUnspecifedNONE
1251974-01-08 -- ----Yesrde/jkoUSGS12409.22 GoodUnspecifedNONE
1241974-01-08 -- ----Yesrde/jkoUSGS31009.00 GoodUnspecifedNONE
1231974-01-08 -- ----Yesrde/jkoUSGS39209.02 GoodUnspecifedNONE
1221974-01-08 -- ----Yesrde/jkoUSGS43109.20 GoodUnspecifedNONE
1211974-01-08 -- ----Yesrde/jkoUSGS45309.36 GoodUnspecifedNONE
1201974-01-08 -- ----Yesrde/jkoUSGS50909.56 GoodUnspecifedNONE
1191974-01-08 -- ----Yesrde/jkoUSGS52609.74 GoodUnspecifedNONE
1181974-01-08 -- ----Yesrde/jkoUSGS57909.99 GoodUnspecifedNONE
1171973-08-06 -- ----Yeshcr/wlfUSGS47209.95 GoodUnspecifedNONE
1161973-08-06 -- ----Yeshcr/wlfUSGS498010.19 GoodUnspecifedNONE
1151973-08-06 -- ----Yeshcr/wlfUSGS524010.59 GoodUnspecifedNONE
1141973-08-06 -- ----Yeshcr/wlfUSGS508011.13 GoodUnspecifedNONE
1131973-08-06 -- ----Yeshcr/wlfUSGS502011.33 GoodUnspecifedNONE
1121973-08-06 -- ----Yeshcr/wlfUSGS-363011.85 GoodUnspecifedNONE
1111972-03-30 -- ----Yeshcr/wlfUSGS362011.76 GoodUnspecifedNONE
1101972-03-30 -- ----Yeshcr/wlfUSGS-453011.90 GoodUnspecifedNONE
1091972-03-30 -- ----Yeshcr/wlfUSGS-512011.60 GoodUnspecifedNONE
1081972-03-30 -- ----Yeshcr/wlfUSGS-544011.28 GoodUnspecifedNONE
1071972-03-30 -- ----Yeshcr/wlfUSGS-504010.98 GoodUnspecifedNONE
1061972-03-30 -- ----Yeshcr/wlfUSGS220010.36 GoodUnspecifedNONE
1051972-03-30 -- ----Yeshcr/wlfUSGS396010.24 GoodUnspecifedNONE
1041972-03-30 -- ----Yeshcr/wlfUSGS544010.68 GoodUnspecifedNONE
1031972-03-30 -- ----Yeshcr/wlfUSGS553011.01 GoodUnspecifedNONE
1021970-10-21 -- ----Yesdmm/hcrUSGS524010.30 UnspecifiedUnspecifedNONE
1011970-10-21 -- ----Yesdmm/hcrUSGS560010.84 UnspecifiedUnspecifedNONE
1001970-10-21 -- ----Yesdmm/hcrUSGS541011.24 UnspecifiedUnspecifedNONE
981970-03-19 -- ----Yesdmm/hcrUSGS49809.92 GoodUnspecifedNONE
971970-03-19 -- ----Yesdmm/hcrUSGS517010.40 GoodUnspecifedNONE
961970-03-19 -- ----Yesdmm/hcrUSGS547010.60 GoodUnspecifedNONE
951970-03-19 -- ----Yesdmm/hcrUSGS544010.88 GoodUnspecifedNONE
931970-03-19 -- ----Yesdmm/hcrUSGS-500011.19 GoodUnspecifedNONE
921970-03-19 -- ----Yesdmm/hcrUSGS-571010.68 GoodUnspecifedNONE
911970-03-19 -- ----Yesdmm/hcrUSGS-563010.38 GoodUnspecifedNONE
901970-03-19 -- ----Yesdmm/hcrUSGS-47309.97 GoodUnspecifedNONE
891970-03-19 -- ----Yesdmm/hcrUSGS-36209.61 GoodUnspecifedNONE
881970-03-19 -- ----Yesdmm/hcrUSGS2739.28 PoorUnspecifedNONE
871970-03-19 -- ----Yesdmm/hcrUSGS19909.08 GoodUnspecifedNONE
861970-03-19 -- ----Yesdmm/hcrUSGS33908.99 GoodUnspecifedNONE
851970-03-19 -- ----Yesdmm/hcrUSGS37809.05 GoodUnspecifedNONE
841968-09-24 -- ----Yesdmm/wlfUSGS359011.38 GoodUnspecifedNONE
831968-09-24 -- ----Yesdmm/wlfUSGS-320011.85 GoodUnspecifedNONE
821968-09-24 -- ----Yesdmm/wlfUSGS-569011.78 GoodUnspecifedNONE
811968-09-24 -- ----Yesdmm/wlfUSGS-512011.07 GoodUnspecifedNONE
801968-09-24 -- ----Yesdmm/wlfUSGS-318010.34 GoodUnspecifedNONE
791968-09-24 -- ----Yesdmm/wlfUSGS39709.25 GoodUnspecifedNONE
781968-09-24 -- ----Yesdmm/wlfUSGS48109.80 GoodUnspecifedNONE
771968-09-24 -- ----Yesdmm/wlfUSGS517010.03 GoodUnspecifedNONE
761968-09-24 -- ----Yesdmm/wlfUSGS516010.44 GoodUnspecifedNONE
751968-09-24 -- ----Yesdmm/wlfUSGS505010.70 GoodUnspecifedNONE
741967-09-15 -- ----Yeswlf/calUSGS-432011.96 GoodUnspecifedNONE
731967-09-15 -- ----Yeswlf/calUSGS-622011.26 GoodUnspecifedNONE
721967-09-15 -- ----Yeswlf/calUSGS-405010.44 GoodUnspecifedNONE
711967-09-15 -- ----Yeswlf/calUSGS11909.86 GoodUnspecifedNONE
701967-09-12 -- ----Yeswmw/wlfUSGS40909.81 GoodUnspecifedNONE
691967-09-12 -- ----Yeswmw/wlfUSGS379010.70 GoodUnspecifedNONE
681967-09-12 -- ----Yeswmw/wlfUSGS195011.04 GoodUnspecifedNONE
671966-10-04 -- ----Yeswmw/calUSGS-31809.87 FairUnspecifedNONE
661966-10-04 -- ----Yeswmw/calUSGS-31509.60 FairUnspecifedNONE
641966-10-04 -- ----Yeswmw/calUSGS35408.98 FairUnspecifedNONE
631966-10-04 -- ----Yeswmw/calUSGS39809.11 FairUnspecifedNONE
621966-10-04 -- ----Yeswmw/calUSGS50409.92 FairUnspecifedNONE
611966-10-04 -- ----Yeswmw/calUSGS544010.14 FairUnspecifedNONE
601966-10-04 -- ----Yeswmw/calUSGS549010.42 FairUnspecifedNONE
591966-08-05 -- ----Yespwp/wlfUSGS201010.13 GoodUnspecifedNONE
581966-08-05 -- ----Yespwp/wlfUSGS371010.07 GoodUnspecifedNONE
571966-08-05 -- ----Yespwp/wlfUSGS495010.22 GoodUnspecifedNONE
561966-08-05 -- ----Yespwp/wlfUSGS525010.44 GoodUnspecifedNONE
551966-08-05 -- ----Yespwp/wlfUSGS558010.67 GoodUnspecifedNONE
541966-08-05 -- ----Yespwp/wlfUSGS584010.86 GoodUnspecifedNONE
531966-08-04 -- ----Yespwp/wlfUSGS-304012.16 GoodUnspecifedNONE
521966-08-04 -- ----Yespwp/wlfUSGS-578012.06 GoodUnspecifedNONE
511966-08-04 -- ----Yespwp/wlfUSGS-657011.72 GoodUnspecifedNONE
501966-08-04 -- ----Yespwp/wlfUSGS-616011.42 GoodUnspecifedNONE
491966-08-04 -- ----Yespwp/wlfUSGS-584011.06 GoodUnspecifedNONE
481965-12-09 -- ----Yespwp/dccUSGS-573010.67 GoodUnspecifedNONE
471965-12-09 -- ----Yespwp/dccUSGS-536010.34 GoodUnspecifedNONE
461965-12-09 -- ----Yespwp/dccUSGS34108.88 GoodUnspecifedNONE
451965-12-09 -- ----Yespwp/dccUSGS39009.02 GoodUnspecifedNONE
441965-11-09 -- ----Yespwp/dccUSGS-678011.70 GoodUnspecifedNONE
431965-11-09 -- ----Yespwp/dccUSGS-676011.48 GoodUnspecifedNONE
421965-11-09 -- ----Yespwp/dccUSGS-658011.18 GoodUnspecifedNONE
411965-11-09 -- ----Yespwp/dccUSGS13709.68 GoodUnspecifedNONE
401965-11-09 -- ----Yespwp/dccUSGS30709.43 GoodUnspecifedNONE
391965-11-09 -- ----Yespwp/dccUSGS42509.52 GoodUnspecifedNONE
381965-04-01 -- ----Yeshcr/pemUSGS-602011.02 GoodUnspecifedNONE
361965-04-01 -- ----Yeshcr/pemUSGS-31109.93 GoodUnspecifedNONE
351965-04-01 -- ----Yeshcr/pemUSGS11609.01 GoodUnspecifedNONE
341965-04-01 -- ----Yeshcr/pemUSGS30208.80 GoodUnspecifedNONE
331965-04-01 -- ----Yeshcr/pemUSGS33308.87 GoodUnspecifedNONE
321964-12-08 -- ----Yeshcr/pemUSGS25708.31 GoodUnspecifedNONE
301964-12-08 -- ----Yeshcr/pemUSGS30608.52 GoodUnspecifedNONE
291964-12-08 -- ----Yeshcr/pemUSGS35608.85 GoodUnspecifedNONE
281964-12-08 -- ----Yeshcr/pemUSGS36709.02 GoodUnspecifedNONE
271964-12-08 -- ----Yeshcr/pemUSGS37709.23 GoodUnspecifedNONE
261964-08-27 -- ----Yeshcr/wmwUSGS-240010.22 GoodUnspecifedNONE
251964-08-27 -- ----Yeshcr/wmwUSGS15709.60 GoodUnspecifedNONE
241964-08-27 -- ----Yeshcr/wmwUSGS30709.24 GoodUnspecifedNONE
231964-08-27 -- ----Yeshcr/wmwUSGS40609.42 GoodUnspecifedNONE
221964-08-27 -- ----Yeshcr/wmwUSGS43009.62 GoodUnspecifedNONE
211964-08-27 -- ----Yeshcr/wmwUSGS46009.82 GoodUnspecifedNONE
201964-08-26 -- ----Yeshcr/wmwUSGS-425010.98 GoodUnspecifedNONE
191964-08-26 -- ----Yeshcr/wmwUSGS-75.910.38 GoodUnspecifedNONE
181964-08-26 -- ----Yeshcr/wmwUSGS24609.73 GoodUnspecifedNONE
171964-08-26 -- ----Yeshcr/wmwUSGS42509.58 GoodUnspecifedNONE
161964-08-26 -- ----Yeshcr/wmwUSGS45409.77 GoodUnspecifedNONE
151964-08-26 -- ----Yeshcr/wmwUSGS470010.02 GoodUnspecifedNONE
91964-08-25 -- ----Yeshcr/wmwUSGS43509.74 Good NONE
141964-08-25 -- ----Yeshcr/wmwUSGS-552011.90 Good NONE
131964-08-25 -- ----Yeshcr/wmwUSGS-554011.52 Good NONE
121964-08-25 -- ----Yeshcr/wmwUSGS-463011.01 Good NONE
111964-08-25 -- ----Yeshcr/wmwUSGS9899.88 Good NONE
101964-08-25 -- ----Yeshcr/wmwUSGS39909.54 Good NONE
81964-06-09 -- ----Yesalb/pemUSGS28811.90 Good NONE
71964-06-09 -- ----Yesalb/pemUSGS-458012.14 Good NONE
61964-06-09 -- ----Yesalb/pemUSGS-615011.60 Good NONE
51964-06-09 -- ----Yesalb/pemUSGS-504011.16 Good NONE
41964-06-09 -- ----YesJAMUSGS-344010.68 Unspecified NONE
31964-06-09 -- ----Yesalb/pemUSGS169010.05 Good NONE
21964-03-19 -- ----Yesalb/pemUSGS32009.94 Good NONE
11964-03-19 -- ----YesALBUSGS327010.11 Unspecified NONE